sensor_id;sensor_type;location;lat;lon;timestamp;P1;durP1;ratioP1;P2;durP2;ratioP2
21128;SDS011;10722;51.910;8.352;2024-03-02T00:01:41;19.17;;;10.17;;
21128;SDS011;10722;51.910;8.352;2024-03-02T00:04:26;19.50;;;10.70;;
21128;SDS011;10722;51.910;8.352;2024-03-02T00:07:11;19.13;;;9.97;;
21128;SDS011;10722;51.910;8.352;2024-03-02T00:09:59;19.50;;;10.90;;
21128;SDS011;10722;51.910;8.352;2024-03-02T00:12:45;20.10;;;11.33;;
21128;SDS011;10722;51.910;8.352;2024-03-02T00:18:26;20.07;;;11.13;;
21128;SDS011;10722;51.910;8.352;2024-03-02T00:21:15;21.87;;;11.70;;
21128;SDS011;10722;51.910;8.352;2024-03-02T00:24:00;21.37;;;11.53;;
21128;SDS011;10722;51.910;8.352;2024-03-02T00:26:50;21.57;;;11.90;;
21128;SDS011;10722;51.910;8.352;2024-03-02T00:29:35;21.50;;;12.03;;
21128;SDS011;10722;51.910;8.352;2024-03-02T00:32:20;20.00;;;11.53;;
21128;SDS011;10722;51.910;8.352;2024-03-02T00:35:05;22.00;;;11.93;;
21128;SDS011;10722;51.910;8.352;2024-03-02T00:37:50;23.07;;;12.70;;
21128;SDS011;10722;51.910;8.352;2024-03-02T00:40:36;23.20;;;12.50;;
21128;SDS011;10722;51.910;8.352;2024-03-02T00:46:06;21.07;;;12.33;;
21128;SDS011;10722;51.910;8.352;2024-03-02T00:48:55;22.73;;;12.50;;
21128;SDS011;10722;51.910;8.352;2024-03-02T00:51:42;21.87;;;12.43;;
21128;SDS011;10722;51.910;8.352;2024-03-02T00:54:31;22.63;;;12.60;;
21128;SDS011;10722;51.910;8.352;2024-03-02T00:57:17;24.53;;;12.40;;
21128;SDS011;10722;51.910;8.352;2024-03-02T01:00:03;22.27;;;12.20;;
21128;SDS011;10722;51.910;8.352;2024-03-02T01:02:48;23.20;;;12.67;;
21128;SDS011;10722;51.910;8.352;2024-03-02T01:05:33;22.60;;;12.43;;
21128;SDS011;10722;51.910;8.352;2024-03-02T01:08:18;23.13;;;12.77;;
21128;SDS011;10722;51.910;8.352;2024-03-02T01:11:04;21.97;;;12.17;;
21128;SDS011;10722;51.910;8.352;2024-03-02T01:13:49;24.37;;;12.80;;
21128;SDS011;10722;51.910;8.352;2024-03-02T01:16:34;23.30;;;12.67;;
21128;SDS011;10722;51.910;8.352;2024-03-02T01:19:19;23.13;;;12.30;;
21128;SDS011;10722;51.910;8.352;2024-03-02T01:22:04;22.03;;;12.47;;
21128;SDS011;10722;51.910;8.352;2024-03-02T01:24:50;22.83;;;12.83;;
21128;SDS011;10722;51.910;8.352;2024-03-02T01:27:35;22.20;;;12.90;;
21128;SDS011;10722;51.910;8.352;2024-03-02T01:30:20;23.83;;;12.43;;
21128;SDS011;10722;51.910;8.352;2024-03-02T01:33:05;24.77;;;13.47;;
21128;SDS011;10722;51.910;8.352;2024-03-02T01:35:50;25.60;;;13.80;;
21128;SDS011;10722;51.910;8.352;2024-03-02T01:38:35;21.67;;;12.17;;
21128;SDS011;10722;51.910;8.352;2024-03-02T01:41:20;23.53;;;12.73;;
21128;SDS011;10722;51.910;8.352;2024-03-02T01:44:05;23.97;;;12.07;;
21128;SDS011;10722;51.910;8.352;2024-03-02T01:46:50;23.47;;;13.20;;
21128;SDS011;10722;51.910;8.352;2024-03-02T01:49:35;22.63;;;13.03;;
21128;SDS011;10722;51.910;8.352;2024-03-02T01:52:20;23.17;;;13.27;;
21128;SDS011;10722;51.910;8.352;2024-03-02T01:55:05;23.80;;;13.20;;
21128;SDS011;10722;51.910;8.352;2024-03-02T01:57:51;23.47;;;13.23;;
21128;SDS011;10722;51.910;8.352;2024-03-02T02:00:37;24.37;;;13.23;;
21128;SDS011;10722;51.910;8.352;2024-03-02T02:03:22;23.10;;;12.73;;
21128;SDS011;10722;51.910;8.352;2024-03-02T02:06:07;25.40;;;13.53;;
21128;SDS011;10722;51.910;8.352;2024-03-02T02:08:52;23.77;;;13.60;;
21128;SDS011;10722;51.910;8.352;2024-03-02T02:11:37;23.30;;;13.60;;
21128;SDS011;10722;51.910;8.352;2024-03-02T02:14:23;23.07;;;13.27;;
21128;SDS011;10722;51.910;8.352;2024-03-02T02:17:08;23.77;;;13.03;;
21128;SDS011;10722;51.910;8.352;2024-03-02T02:19:53;21.37;;;12.50;;
21128;SDS011;10722;51.910;8.352;2024-03-02T02:22:38;23.97;;;13.70;;
21128;SDS011;10722;51.910;8.352;2024-03-02T02:25:22;23.10;;;13.47;;
21128;SDS011;10722;51.910;8.352;2024-03-02T02:28:08;23.33;;;13.33;;
21128;SDS011;10722;51.910;8.352;2024-03-02T02:30:54;23.47;;;12.97;;
21128;SDS011;10722;51.910;8.352;2024-03-02T02:33:39;22.60;;;13.03;;
21128;SDS011;10722;51.910;8.352;2024-03-02T02:36:25;22.33;;;12.90;;
21128;SDS011;10722;51.910;8.352;2024-03-02T02:39:11;23.17;;;12.37;;
21128;SDS011;10722;51.910;8.352;2024-03-02T02:41:59;22.27;;;12.73;;
21128;SDS011;10722;51.910;8.352;2024-03-02T02:44:44;23.50;;;12.77;;
21128;SDS011;10722;51.910;8.352;2024-03-02T02:47:29;21.77;;;12.57;;
21128;SDS011;10722;51.910;8.352;2024-03-02T02:50:15;21.63;;;12.93;;
21128;SDS011;10722;51.910;8.352;2024-03-02T02:52:59;22.23;;;12.73;;
21128;SDS011;10722;51.910;8.352;2024-03-02T02:55:44;21.87;;;13.07;;
21128;SDS011;10722;51.910;8.352;2024-03-02T02:58:29;24.37;;;13.20;;
21128;SDS011;10722;51.910;8.352;2024-03-02T03:01:15;22.03;;;12.57;;
21128;SDS011;10722;51.910;8.352;2024-03-02T03:04:00;22.53;;;13.20;;
21128;SDS011;10722;51.910;8.352;2024-03-02T03:06:46;22.03;;;13.23;;
21128;SDS011;10722;51.910;8.352;2024-03-02T03:09:31;24.33;;;13.50;;
21128;SDS011;10722;51.910;8.352;2024-03-02T03:12:16;23.70;;;13.67;;
21128;SDS011;10722;51.910;8.352;2024-03-02T03:15:01;25.77;;;14.53;;
21128;SDS011;10722;51.910;8.352;2024-03-02T03:17:47;22.53;;;13.77;;
21128;SDS011;10722;51.910;8.352;2024-03-02T03:20:32;22.77;;;13.10;;
21128;SDS011;10722;51.910;8.352;2024-03-02T03:23:18;24.30;;;13.30;;
21128;SDS011;10722;51.910;8.352;2024-03-02T03:26:03;23.50;;;13.90;;
21128;SDS011;10722;51.910;8.352;2024-03-02T03:28:47;23.30;;;13.70;;
21128;SDS011;10722;51.910;8.352;2024-03-02T03:31:32;24.47;;;14.20;;
21128;SDS011;10722;51.910;8.352;2024-03-02T03:34:17;24.07;;;14.23;;
21128;SDS011;10722;51.910;8.352;2024-03-02T03:37:02;24.07;;;14.07;;
21128;SDS011;10722;51.910;8.352;2024-03-02T03:39:48;24.50;;;14.60;;
21128;SDS011;10722;51.910;8.352;2024-03-02T03:42:32;23.43;;;13.47;;
21128;SDS011;10722;51.910;8.352;2024-03-02T03:45:17;24.13;;;14.33;;
21128;SDS011;10722;51.910;8.352;2024-03-02T03:48:02;24.73;;;15.20;;
21128;SDS011;10722;51.910;8.352;2024-03-02T03:50:48;25.23;;;15.53;;
21128;SDS011;10722;51.910;8.352;2024-03-02T03:53:32;25.47;;;15.33;;
21128;SDS011;10722;51.910;8.352;2024-03-02T03:56:17;24.90;;;15.07;;
21128;SDS011;10722;51.910;8.352;2024-03-02T03:59:02;25.50;;;15.80;;
21128;SDS011;10722;51.910;8.352;2024-03-02T04:01:48;27.50;;;15.90;;
21128;SDS011;10722;51.910;8.352;2024-03-02T04:04:33;26.23;;;16.40;;
21128;SDS011;10722;51.910;8.352;2024-03-02T04:07:19;26.73;;;16.30;;
21128;SDS011;10722;51.910;8.352;2024-03-02T04:10:04;26.90;;;16.50;;
21128;SDS011;10722;51.910;8.352;2024-03-02T04:12:49;27.17;;;16.60;;
21128;SDS011;10722;51.910;8.352;2024-03-02T04:15:35;27.67;;;16.77;;
21128;SDS011;10722;51.910;8.352;2024-03-02T04:18:20;28.33;;;17.60;;
21128;SDS011;10722;51.910;8.352;2024-03-02T04:21:05;27.13;;;16.83;;
21128;SDS011;10722;51.910;8.352;2024-03-02T04:23:50;27.90;;;17.10;;
21128;SDS011;10722;51.910;8.352;2024-03-02T04:26:35;28.77;;;17.60;;
21128;SDS011;10722;51.910;8.352;2024-03-02T04:29:20;30.43;;;18.40;;
21128;SDS011;10722;51.910;8.352;2024-03-02T04:32:05;28.00;;;16.93;;
21128;SDS011;10722;51.910;8.352;2024-03-02T04:34:51;29.07;;;17.57;;
21128;SDS011;10722;51.910;8.352;2024-03-02T04:37:36;29.50;;;17.43;;
21128;SDS011;10722;51.910;8.352;2024-03-02T04:40:21;30.67;;;18.63;;
21128;SDS011;10722;51.910;8.352;2024-03-02T04:43:06;33.37;;;19.17;;
21128;SDS011;10722;51.910;8.352;2024-03-02T04:45:51;28.93;;;17.93;;
21128;SDS011;10722;51.910;8.352;2024-03-02T04:48:36;31.83;;;19.13;;
21128;SDS011;10722;51.910;8.352;2024-03-02T04:51:21;33.47;;;19.90;;
21128;SDS011;10722;51.910;8.352;2024-03-02T04:54:06;31.80;;;19.60;;
21128;SDS011;10722;51.910;8.352;2024-03-02T04:56:51;33.13;;;19.93;;
21128;SDS011;10722;51.910;8.352;2024-03-02T04:59:36;32.17;;;19.40;;
21128;SDS011;10722;51.910;8.352;2024-03-02T05:02:21;33.03;;;20.30;;
21128;SDS011;10722;51.910;8.352;2024-03-02T05:05:06;33.03;;;19.97;;
21128;SDS011;10722;51.910;8.352;2024-03-02T05:07:51;34.13;;;19.50;;
21128;SDS011;10722;51.910;8.352;2024-03-02T05:10:36;32.33;;;19.40;;
21128;SDS011;10722;51.910;8.352;2024-03-02T05:13:20;32.17;;;20.67;;
21128;SDS011;10722;51.910;8.352;2024-03-02T05:16:06;33.77;;;20.77;;
21128;SDS011;10722;51.910;8.352;2024-03-02T05:18:51;34.63;;;21.37;;
21128;SDS011;10722;51.910;8.352;2024-03-02T05:21:36;34.27;;;20.83;;
21128;SDS011;10722;51.910;8.352;2024-03-02T05:24:21;34.40;;;21.13;;
21128;SDS011;10722;51.910;8.352;2024-03-02T05:27:06;34.30;;;20.33;;
21128;SDS011;10722;51.910;8.352;2024-03-02T05:29:51;33.37;;;21.07;;
21128;SDS011;10722;51.910;8.352;2024-03-02T05:32:36;34.50;;;21.23;;
21128;SDS011;10722;51.910;8.352;2024-03-02T05:35:21;35.37;;;20.93;;
21128;SDS011;10722;51.910;8.352;2024-03-02T05:38:06;34.30;;;20.80;;
21128;SDS011;10722;51.910;8.352;2024-03-02T05:40:51;37.30;;;21.73;;
21128;SDS011;10722;51.910;8.352;2024-03-02T05:43:36;33.73;;;21.00;;
21128;SDS011;10722;51.910;8.352;2024-03-02T05:46:21;36.60;;;21.40;;
21128;SDS011;10722;51.910;8.352;2024-03-02T05:49:06;35.50;;;21.60;;
21128;SDS011;10722;51.910;8.352;2024-03-02T05:51:51;34.47;;;20.40;;
21128;SDS011;10722;51.910;8.352;2024-03-02T05:54:36;35.23;;;20.00;;
21128;SDS011;10722;51.910;8.352;2024-03-02T05:57:22;37.33;;;21.10;;
21128;SDS011;10722;51.910;8.352;2024-03-02T06:00:07;35.30;;;21.13;;
21128;SDS011;10722;51.910;8.352;2024-03-02T06:02:53;34.93;;;20.40;;
21128;SDS011;10722;51.910;8.352;2024-03-02T06:05:38;34.03;;;21.03;;
21128;SDS011;10722;51.910;8.352;2024-03-02T06:08:23;36.30;;;21.10;;
21128;SDS011;10722;51.910;8.352;2024-03-02T06:11:08;34.33;;;19.97;;
21128;SDS011;10722;51.910;8.352;2024-03-02T06:13:53;35.33;;;20.50;;
21128;SDS011;10722;51.910;8.352;2024-03-02T06:16:38;36.00;;;21.37;;
21128;SDS011;10722;51.910;8.352;2024-03-02T06:19:23;34.07;;;20.63;;
21128;SDS011;10722;51.910;8.352;2024-03-02T06:22:07;32.30;;;19.27;;
21128;SDS011;10722;51.910;8.352;2024-03-02T06:24:52;35.80;;;20.27;;
21128;SDS011;10722;51.910;8.352;2024-03-02T06:27:38;35.20;;;20.23;;
21128;SDS011;10722;51.910;8.352;2024-03-02T06:30:23;35.03;;;20.20;;
21128;SDS011;10722;51.910;8.352;2024-03-02T06:33:08;34.07;;;20.20;;
21128;SDS011;10722;51.910;8.352;2024-03-02T06:35:52;34.33;;;20.33;;
21128;SDS011;10722;51.910;8.352;2024-03-02T06:38:38;35.30;;;20.77;;
21128;SDS011;10722;51.910;8.352;2024-03-02T06:41:26;35.53;;;21.00;;
21128;SDS011;10722;51.910;8.352;2024-03-02T06:44:11;35.33;;;20.63;;
21128;SDS011;10722;51.910;8.352;2024-03-02T06:46:56;33.30;;;20.30;;
21128;SDS011;10722;51.910;8.352;2024-03-02T06:49:41;36.40;;;21.87;;
21128;SDS011;10722;51.910;8.352;2024-03-02T06:52:26;34.27;;;20.77;;
21128;SDS011;10722;51.910;8.352;2024-03-02T06:55:11;34.57;;;20.07;;
21128;SDS011;10722;51.910;8.352;2024-03-02T06:57:56;32.50;;;20.10;;
21128;SDS011;10722;51.910;8.352;2024-03-02T07:00:42;35.57;;;20.17;;
21128;SDS011;10722;51.910;8.352;2024-03-02T07:03:27;36.17;;;20.93;;
21128;SDS011;10722;51.910;8.352;2024-03-02T07:06:12;33.83;;;20.37;;
21128;SDS011;10722;51.910;8.352;2024-03-02T07:08:57;35.43;;;20.40;;
21128;SDS011;10722;51.910;8.352;2024-03-02T07:11:42;35.47;;;20.57;;
21128;SDS011;10722;51.910;8.352;2024-03-02T07:14:26;34.53;;;20.53;;
21128;SDS011;10722;51.910;8.352;2024-03-02T07:17:11;37.73;;;21.97;;
21128;SDS011;10722;51.910;8.352;2024-03-02T07:19:56;41.50;;;24.10;;
21128;SDS011;10722;51.910;8.352;2024-03-02T07:22:42;36.77;;;21.57;;
21128;SDS011;10722;51.910;8.352;2024-03-02T07:25:29;37.97;;;21.37;;
21128;SDS011;10722;51.910;8.352;2024-03-02T07:28:17;33.87;;;20.03;;
21128;SDS011;10722;51.910;8.352;2024-03-02T07:31:02;163.13;;;92.53;;
21128;SDS011;10722;51.910;8.352;2024-03-02T07:33:48;38.83;;;21.47;;
21128;SDS011;10722;51.910;8.352;2024-03-02T07:36:33;35.63;;;20.53;;
21128;SDS011;10722;51.910;8.352;2024-03-02T07:39:19;35.47;;;20.53;;
21128;SDS011;10722;51.910;8.352;2024-03-02T07:42:04;33.93;;;20.10;;
21128;SDS011;10722;51.910;8.352;2024-03-02T07:44:49;35.30;;;20.27;;
21128;SDS011;10722;51.910;8.352;2024-03-02T07:47:34;34.20;;;20.37;;
21128;SDS011;10722;51.910;8.352;2024-03-02T07:50:19;33.80;;;20.03;;
21128;SDS011;10722;51.910;8.352;2024-03-02T07:53:04;31.70;;;18.90;;
21128;SDS011;10722;51.910;8.352;2024-03-02T07:55:50;32.00;;;19.43;;
21128;SDS011;10722;51.910;8.352;2024-03-02T07:58:35;31.43;;;18.67;;
21128;SDS011;10722;51.910;8.352;2024-03-02T08:01:20;32.67;;;19.20;;
21128;SDS011;10722;51.910;8.352;2024-03-02T08:04:06;34.03;;;21.27;;
21128;SDS011;10722;51.910;8.352;2024-03-02T08:06:51;31.93;;;18.50;;
21128;SDS011;10722;51.910;8.352;2024-03-02T08:09:36;30.53;;;17.23;;
21128;SDS011;10722;51.910;8.352;2024-03-02T08:12:21;31.30;;;17.83;;
21128;SDS011;10722;51.910;8.352;2024-03-02T08:15:06;28.93;;;17.10;;
21128;SDS011;10722;51.910;8.352;2024-03-02T08:17:52;28.67;;;16.97;;
21128;SDS011;10722;51.910;8.352;2024-03-02T08:20:37;30.47;;;17.33;;
21128;SDS011;10722;51.910;8.352;2024-03-02T08:23:23;27.30;;;16.20;;
21128;SDS011;10722;51.910;8.352;2024-03-02T08:26:08;27.10;;;15.93;;
21128;SDS011;10722;51.910;8.352;2024-03-02T08:28:54;25.30;;;15.10;;
21128;SDS011;10722;51.910;8.352;2024-03-02T08:31:40;24.83;;;13.77;;
21128;SDS011;10722;51.910;8.352;2024-03-02T08:34:26;26.43;;;14.67;;
21128;SDS011;10722;51.910;8.352;2024-03-02T08:37:11;24.30;;;13.73;;
21128;SDS011;10722;51.910;8.352;2024-03-02T08:39:56;26.30;;;14.83;;
21128;SDS011;10722;51.910;8.352;2024-03-02T08:42:42;26.27;;;15.13;;
21128;SDS011;10722;51.910;8.352;2024-03-02T08:45:27;24.87;;;14.13;;
21128;SDS011;10722;51.910;8.352;2024-03-02T08:48:12;23.50;;;13.57;;
21128;SDS011;10722;51.910;8.352;2024-03-02T08:50:57;25.00;;;13.83;;
21128;SDS011;10722;51.910;8.352;2024-03-02T08:53:42;24.10;;;13.33;;
21128;SDS011;10722;51.910;8.352;2024-03-02T08:56:28;22.50;;;12.60;;
21128;SDS011;10722;51.910;8.352;2024-03-02T08:59:14;24.20;;;13.03;;
21128;SDS011;10722;51.910;8.352;2024-03-02T09:01:59;22.23;;;12.50;;
21128;SDS011;10722;51.910;8.352;2024-03-02T09:04:45;23.13;;;12.50;;
21128;SDS011;10722;51.910;8.352;2024-03-02T09:07:30;22.83;;;12.60;;
21128;SDS011;10722;51.910;8.352;2024-03-02T09:10:15;24.07;;;12.80;;
21128;SDS011;10722;51.910;8.352;2024-03-02T09:13:00;24.10;;;12.27;;
21128;SDS011;10722;51.910;8.352;2024-03-02T09:15:46;21.73;;;11.97;;
21128;SDS011;10722;51.910;8.352;2024-03-02T09:18:31;19.90;;;10.13;;
21128;SDS011;10722;51.910;8.352;2024-03-02T09:21:16;18.03;;;8.63;;
21128;SDS011;10722;51.910;8.352;2024-03-02T09:24:01;17.03;;;7.37;;
21128;SDS011;10722;51.910;8.352;2024-03-02T09:26:46;17.60;;;7.45;;
21128;SDS011;10722;51.910;8.352;2024-03-02T09:29:31;15.90;;;6.57;;
21128;SDS011;10722;51.910;8.352;2024-03-02T09:32:16;16.33;;;7.00;;
21128;SDS011;10722;51.910;8.352;2024-03-02T09:35:01;16.47;;;6.80;;
21128;SDS011;10722;51.910;8.352;2024-03-02T09:37:46;17.05;;;7.20;;
21128;SDS011;10722;51.910;8.352;2024-03-02T09:40:31;15.53;;;6.60;;
21128;SDS011;10722;51.910;8.352;2024-03-02T09:43:16;15.45;;;6.85;;
21128;SDS011;10722;51.910;8.352;2024-03-02T09:46:02;14.73;;;7.13;;
21128;SDS011;10722;51.910;8.352;2024-03-02T09:48:48;15.57;;;6.50;;
21128;SDS011;10722;51.910;8.352;2024-03-02T09:51:33;16.13;;;6.63;;
21128;SDS011;10722;51.910;8.352;2024-03-02T09:54:18;14.48;;;6.80;;
21128;SDS011;10722;51.910;8.352;2024-03-02T09:57:07;16.65;;;7.43;;
21128;SDS011;10722;51.910;8.352;2024-03-02T09:59:53;16.77;;;7.80;;
21128;SDS011;10722;51.910;8.352;2024-03-02T10:02:38;14.98;;;6.72;;
21128;SDS011;10722;51.910;8.352;2024-03-02T10:05:23;15.07;;;6.80;;
21128;SDS011;10722;51.910;8.352;2024-03-02T10:08:12;16.10;;;7.82;;
21128;SDS011;10722;51.910;8.352;2024-03-02T10:10:57;16.45;;;8.00;;
21128;SDS011;10722;51.910;8.352;2024-03-02T10:13:42;17.17;;;8.20;;
21128;SDS011;10722;51.910;8.352;2024-03-02T10:16:27;17.02;;;8.85;;
21128;SDS011;10722;51.910;8.352;2024-03-02T10:19:19;19.30;;;9.38;;
21128;SDS011;10722;51.910;8.352;2024-03-02T10:22:06;19.73;;;8.93;;
21128;SDS011;10722;51.910;8.352;2024-03-02T10:24:52;18.40;;;9.00;;
21128;SDS011;10722;51.910;8.352;2024-03-02T10:27:43;17.55;;;7.78;;
21128;SDS011;10722;51.910;8.352;2024-03-02T10:30:28;18.65;;;8.20;;
21128;SDS011;10722;51.910;8.352;2024-03-02T10:33:14;17.85;;;8.30;;
21128;SDS011;10722;51.910;8.352;2024-03-02T10:35:58;16.38;;;8.15;;
21128;SDS011;10722;51.910;8.352;2024-03-02T10:38:43;15.55;;;7.75;;
21128;SDS011;10722;51.910;8.352;2024-03-02T10:41:29;15.88;;;7.40;;
21128;SDS011;10722;51.910;8.352;2024-03-02T10:44:17;17.58;;;7.78;;
21128;SDS011;10722;51.910;8.352;2024-03-02T10:47:04;16.55;;;8.10;;
21128;SDS011;10722;51.910;8.352;2024-03-02T10:49:50;14.65;;;6.60;;
21128;SDS011;10722;51.910;8.352;2024-03-02T10:52:37;15.18;;;6.63;;
21128;SDS011;10722;51.910;8.352;2024-03-02T10:55:22;13.95;;;5.97;;
21128;SDS011;10722;51.910;8.352;2024-03-02T10:58:08;13.10;;;5.80;;
21128;SDS011;10722;51.910;8.352;2024-03-02T11:00:57;14.38;;;6.57;;
21128;SDS011;10722;51.910;8.352;2024-03-02T11:03:47;15.15;;;6.25;;
21128;SDS011;10722;51.910;8.352;2024-03-02T11:06:32;15.18;;;6.78;;
21128;SDS011;10722;51.910;8.352;2024-03-02T11:09:20;15.02;;;6.80;;
21128;SDS011;10722;51.910;8.352;2024-03-02T11:12:16;14.95;;;5.95;;
21128;SDS011;10722;51.910;8.352;2024-03-02T11:15:04;14.68;;;6.75;;
21128;SDS011;10722;51.910;8.352;2024-03-02T11:17:55;17.35;;;6.03;;
21128;SDS011;10722;51.910;8.352;2024-03-02T11:20:41;14.73;;;6.57;;
21128;SDS011;10722;51.910;8.352;2024-03-02T11:23:34;16.85;;;6.80;;
21128;SDS011;10722;51.910;8.352;2024-03-02T11:26:20;14.95;;;6.70;;
21128;SDS011;10722;51.910;8.352;2024-03-02T11:29:06;14.45;;;6.88;;
21128;SDS011;10722;51.910;8.352;2024-03-02T11:31:57;18.42;;;9.40;;
21128;SDS011;10722;51.910;8.352;2024-03-02T11:34:44;18.02;;;8.52;;
21128;SDS011;10722;51.910;8.352;2024-03-02T11:37:31;15.63;;;6.13;;
21128;SDS011;10722;51.910;8.352;2024-03-02T11:40:18;14.15;;;6.10;;
21128;SDS011;10722;51.910;8.352;2024-03-02T11:43:07;13.57;;;5.82;;
21128;SDS011;10722;51.910;8.352;2024-03-02T11:45:56;14.18;;;5.78;;
21128;SDS011;10722;51.910;8.352;2024-03-02T11:48:42;14.57;;;6.80;;
21128;SDS011;10722;51.910;8.352;2024-03-02T11:51:27;14.55;;;6.50;;
21128;SDS011;10722;51.910;8.352;2024-03-02T11:54:12;13.43;;;6.07;;
21128;SDS011;10722;51.910;8.352;2024-03-02T11:56:57;8.93;;;3.20;;
21128;SDS011;10722;51.910;8.352;2024-03-02T11:59:44;5.95;;;2.47;;
21128;SDS011;10722;51.910;8.352;2024-03-02T12:02:30;11.00;;;4.18;;
21128;SDS011;10722;51.910;8.352;2024-03-02T12:05:16;10.00;;;3.50;;
21128;SDS011;10722;51.910;8.352;2024-03-02T12:08:02;6.57;;;2.47;;
21128;SDS011;10722;51.910;8.352;2024-03-02T12:10:58;5.43;;;2.33;;
21128;SDS011;10722;51.910;8.352;2024-03-02T12:13:54;7.07;;;2.00;;
21128;SDS011;10722;51.910;8.352;2024-03-02T12:16:39;5.40;;;2.05;;
21128;SDS011;10722;51.910;8.352;2024-03-02T12:19:29;5.93;;;2.03;;
21128;SDS011;10722;51.910;8.352;2024-03-02T12:22:15;7.20;;;2.50;;
21128;SDS011;10722;51.910;8.352;2024-03-02T12:25:00;7.63;;;2.17;;
21128;SDS011;10722;51.910;8.352;2024-03-02T12:27:46;7.72;;;2.70;;
21128;SDS011;10722;51.910;8.352;2024-03-02T12:30:35;5.97;;;2.33;;
21128;SDS011;10722;51.910;8.352;2024-03-02T12:33:20;5.68;;;2.28;;
21128;SDS011;10722;51.910;8.352;2024-03-02T12:36:09;6.38;;;2.30;;
21128;SDS011;10722;51.910;8.352;2024-03-02T12:38:54;8.82;;;2.70;;
21128;SDS011;10722;51.910;8.352;2024-03-02T12:41:40;5.45;;;2.25;;
21128;SDS011;10722;51.910;8.352;2024-03-02T12:44:26;6.60;;;2.50;;
21128;SDS011;10722;51.910;8.352;2024-03-02T12:47:11;11.10;;;3.97;;
21128;SDS011;10722;51.910;8.352;2024-03-02T12:49:57;11.90;;;4.30;;
21128;SDS011;10722;51.910;8.352;2024-03-02T12:52:43;12.07;;;4.90;;
21128;SDS011;10722;51.910;8.352;2024-03-02T12:55:28;13.95;;;4.85;;
21128;SDS011;10722;51.910;8.352;2024-03-02T12:58:21;13.95;;;5.22;;
21128;SDS011;10722;51.910;8.352;2024-03-02T13:01:07;12.35;;;5.47;;
21128;SDS011;10722;51.910;8.352;2024-03-02T13:03:53;13.90;;;5.20;;
21128;SDS011;10722;51.910;8.352;2024-03-02T13:06:38;12.10;;;5.25;;
21128;SDS011;10722;51.910;8.352;2024-03-02T13:09:24;26.92;;;15.32;;
21128;SDS011;10722;51.910;8.352;2024-03-02T13:12:09;13.20;;;5.22;;
21128;SDS011;10722;51.910;8.352;2024-03-02T13:14:54;13.10;;;5.43;;
21128;SDS011;10722;51.910;8.352;2024-03-02T13:17:39;11.85;;;5.28;;
21128;SDS011;10722;51.910;8.352;2024-03-02T13:20:29;13.15;;;5.47;;
21128;SDS011;10722;51.910;8.352;2024-03-02T13:23:15;12.32;;;4.90;;
21128;SDS011;10722;51.910;8.352;2024-03-02T13:26:00;13.40;;;5.18;;
21128;SDS011;10722;51.910;8.352;2024-03-02T13:28:46;12.57;;;5.10;;
21128;SDS011;10722;51.910;8.352;2024-03-02T13:31:30;11.73;;;4.90;;
21128;SDS011;10722;51.910;8.352;2024-03-02T13:34:15;14.45;;;5.10;;
21128;SDS011;10722;51.910;8.352;2024-03-02T13:37:00;11.75;;;5.00;;
21128;SDS011;10722;51.910;8.352;2024-03-02T13:39:46;13.20;;;4.82;;
21128;SDS011;10722;51.910;8.352;2024-03-02T13:42:31;11.13;;;4.68;;
21128;SDS011;10722;51.910;8.352;2024-03-02T13:45:16;11.90;;;4.82;;
21128;SDS011;10722;51.910;8.352;2024-03-02T13:48:02;13.20;;;5.05;;
21128;SDS011;10722;51.910;8.352;2024-03-02T13:50:47;14.18;;;5.55;;
21128;SDS011;10722;51.910;8.352;2024-03-02T13:53:32;13.30;;;5.20;;
21128;SDS011;10722;51.910;8.352;2024-03-02T13:56:17;12.55;;;4.90;;
21128;SDS011;10722;51.910;8.352;2024-03-02T13:59:02;12.23;;;5.28;;
21128;SDS011;10722;51.910;8.352;2024-03-02T14:01:47;13.27;;;5.35;;
21128;SDS011;10722;51.910;8.352;2024-03-02T14:04:36;11.63;;;4.70;;
21128;SDS011;10722;51.910;8.352;2024-03-02T14:07:23;28.65;;;16.58;;
21128;SDS011;10722;51.910;8.352;2024-03-02T14:10:08;15.63;;;7.15;;
21128;SDS011;10722;51.910;8.352;2024-03-02T14:12:53;13.05;;;5.00;;
21128;SDS011;10722;51.910;8.352;2024-03-02T14:15:38;13.98;;;5.25;;
21128;SDS011;10722;51.910;8.352;2024-03-02T14:18:23;12.95;;;5.57;;
21128;SDS011;10722;51.910;8.352;2024-03-02T14:21:08;14.48;;;4.93;;
21128;SDS011;10722;51.910;8.352;2024-03-02T14:23:53;13.32;;;5.18;;
21128;SDS011;10722;51.910;8.352;2024-03-02T14:26:37;12.23;;;4.97;;
21128;SDS011;10722;51.910;8.352;2024-03-02T14:29:23;13.07;;;4.95;;
21128;SDS011;10722;51.910;8.352;2024-03-02T14:32:08;13.77;;;5.03;;
21128;SDS011;10722;51.910;8.352;2024-03-02T14:34:53;13.02;;;5.40;;
21128;SDS011;10722;51.910;8.352;2024-03-02T14:37:38;14.13;;;4.85;;
21128;SDS011;10722;51.910;8.352;2024-03-02T14:40:24;13.02;;;4.78;;
21128;SDS011;10722;51.910;8.352;2024-03-02T14:43:09;14.38;;;5.38;;
21128;SDS011;10722;51.910;8.352;2024-03-02T14:45:54;13.45;;;4.82;;
21128;SDS011;10722;51.910;8.352;2024-03-02T14:48:39;13.45;;;5.00;;
21128;SDS011;10722;51.910;8.352;2024-03-02T14:51:25;12.85;;;4.60;;
21128;SDS011;10722;51.910;8.352;2024-03-02T14:54:10;10.68;;;4.35;;
21128;SDS011;10722;51.910;8.352;2024-03-02T14:56:55;10.98;;;4.25;;
21128;SDS011;10722;51.910;8.352;2024-03-02T14:59:40;12.15;;;4.30;;
21128;SDS011;10722;51.910;8.352;2024-03-02T15:02:25;13.02;;;4.25;;
21128;SDS011;10722;51.910;8.352;2024-03-02T15:05:10;12.45;;;4.38;;
21128;SDS011;10722;51.910;8.352;2024-03-02T15:07:55;10.32;;;3.80;;
21128;SDS011;10722;51.910;8.352;2024-03-02T15:10:41;10.85;;;3.90;;
21128;SDS011;10722;51.910;8.352;2024-03-02T15:13:29;15.60;;;4.60;;
21128;SDS011;10722;51.910;8.352;2024-03-02T15:16:14;11.38;;;4.20;;
21128;SDS011;10722;51.910;8.352;2024-03-02T15:18:59;14.13;;;4.20;;
21128;SDS011;10722;51.910;8.352;2024-03-02T15:21:44;12.13;;;4.10;;
21128;SDS011;10722;51.910;8.352;2024-03-02T15:24:29;13.32;;;5.43;;
21128;SDS011;10722;51.910;8.352;2024-03-02T15:27:14;12.45;;;4.72;;
21128;SDS011;10722;51.910;8.352;2024-03-02T15:29:59;12.75;;;4.70;;
21128;SDS011;10722;51.910;8.352;2024-03-02T15:32:44;11.70;;;3.97;;
21128;SDS011;10722;51.910;8.352;2024-03-02T15:35:29;11.63;;;4.07;;
21128;SDS011;10722;51.910;8.352;2024-03-02T15:38:14;9.65;;;3.78;;
21128;SDS011;10722;51.910;8.352;2024-03-02T15:41:12;13.27;;;4.82;;
21128;SDS011;10722;51.910;8.352;2024-03-02T15:43:57;10.95;;;4.55;;
21128;SDS011;10722;51.910;8.352;2024-03-02T15:46:42;11.23;;;4.30;;
21128;SDS011;10722;51.910;8.352;2024-03-02T15:49:27;11.45;;;3.85;;
21128;SDS011;10722;51.910;8.352;2024-03-02T15:52:12;11.60;;;3.40;;
21128;SDS011;10722;51.910;8.352;2024-03-02T15:54:57;9.90;;;3.50;;
21128;SDS011;10722;51.910;8.352;2024-03-02T15:57:43;13.30;;;3.50;;
21128;SDS011;10722;51.910;8.352;2024-03-02T16:00:28;8.38;;;3.00;;
21128;SDS011;10722;51.910;8.352;2024-03-02T16:03:13;8.75;;;3.20;;
21128;SDS011;10722;51.910;8.352;2024-03-02T16:05:59;9.15;;;3.00;;
21128;SDS011;10722;51.910;8.352;2024-03-02T16:08:43;9.45;;;3.00;;
21128;SDS011;10722;51.910;8.352;2024-03-02T16:11:28;11.45;;;3.20;;
21128;SDS011;10722;51.910;8.352;2024-03-02T16:14:14;10.27;;;3.70;;
21128;SDS011;10722;51.910;8.352;2024-03-02T16:16:59;9.80;;;3.13;;
21128;SDS011;10722;51.910;8.352;2024-03-02T16:19:44;9.68;;;2.95;;
21128;SDS011;10722;51.910;8.352;2024-03-02T16:22:29;9.00;;;3.30;;